createdAt,value
2023-03-07T00:00:51.458Z,11.60
2023-03-07T00:03:58.071Z,11.60
2023-03-07T00:07:03.534Z,11.50
2023-03-07T00:10:09.656Z,11.28
2023-03-07T00:13:16.103Z,9.60
2023-03-07T00:16:24.779Z,9.73
2023-03-07T00:19:31.599Z,10.05
2023-03-07T00:22:38.012Z,10.48
2023-03-07T00:25:38.099Z,9.53
2023-03-07T00:28:44.007Z,9.45
2023-03-07T00:31:49.065Z,9.13
2023-03-07T00:34:56.534Z,10.43
2023-03-07T00:38:01.278Z,9.50
2023-03-07T00:41:18.851Z,8.83
2023-03-07T00:44:18.352Z,9.20
2023-03-07T00:47:05.422Z,10.25
2023-03-07T00:49:57.509Z,9.03
2023-03-07T00:52:44.829Z,9.93
2023-03-07T00:55:44.139Z,8.80
2023-03-07T00:58:51.276Z,10.88
2023-03-07T01:01:57.705Z,8.80
2023-03-07T01:05:03.979Z,10.38
2023-03-07T01:08:10.068Z,10.48
2023-03-07T01:11:18.995Z,10.75
2023-03-07T01:14:25.825Z,9.88
2023-03-07T01:17:32.703Z,10.30
2023-03-07T01:20:39.282Z,10.13
2023-03-07T01:23:45.851Z,9.65
2023-03-07T01:26:52.223Z,10.95
2023-03-07T01:29:58.366Z,9.98
2023-03-07T01:33:06.049Z,10.03
2023-03-07T01:36:12.252Z,10.93
2023-03-07T01:39:28.319Z,10.48
2023-03-07T01:42:36.223Z,10.48
2023-03-07T01:45:55.278Z,10.10
2023-03-07T01:49:18.294Z,9.80
2023-03-07T01:52:41.617Z,9.68
2023-03-07T01:55:49.201Z,10.18
2023-03-07T01:58:55.877Z,11.70
2023-03-07T02:02:01.720Z,12.70
2023-03-07T02:05:32.100Z,14.30
2023-03-07T02:11:43.301Z,14.47
2023-03-07T02:14:49.308Z,14.47
2023-03-07T02:17:58.201Z,13.35
2023-03-07T02:21:24.504Z,14.47
2023-03-07T02:27:59.553Z,12.55
2023-03-07T02:31:18.094Z,11.22
2023-03-07T02:34:41.916Z,11.10
2023-03-07T02:37:53.294Z,10.53
2023-03-07T02:40:58.720Z,10.28
2023-03-07T02:43:59.641Z,9.40
2023-03-07T02:46:46.619Z,9.98
2023-03-07T02:49:39.963Z,10.30
2023-03-07T02:52:35.000Z,9.30
2023-03-07T02:55:40.317Z,10.28
2023-03-07T02:58:48.400Z,10.13
2023-03-07T03:01:54.210Z,10.05
2023-03-07T03:04:59.875Z,10.25
2023-03-07T03:08:07.719Z,11.03
2023-03-07T03:11:13.626Z,13.22
2023-03-07T03:14:19.884Z,11.73
2023-03-07T03:17:26.481Z,11.78
2023-03-07T03:20:32.257Z,12.82
2023-03-07T03:23:40.638Z,11.12
2023-03-07T03:26:45.715Z,10.60
2023-03-07T03:29:53.382Z,11.18
2023-03-07T03:33:01.009Z,11.22
2023-03-07T03:36:07.316Z,11.73
2023-03-07T03:39:15.936Z,12.93
2023-03-07T03:42:24.082Z,9.83
2023-03-07T03:45:31.199Z,13.85
2023-03-07T03:48:36.971Z,15.13
2023-03-07T03:51:43.360Z,19.37
2023-03-07T03:54:49.443Z,18.73
2023-03-07T03:57:56.969Z,22.52
2023-03-07T04:01:02.509Z,23.83
2023-03-07T04:04:03.865Z,25.25
2023-03-07T04:07:11.625Z,23.10
2023-03-07T04:10:20.213Z,18.98
2023-03-07T04:13:27.473Z,22.42
2023-03-07T04:16:33.637Z,20.37
2023-03-07T04:19:40.983Z,19.73
2023-03-07T04:22:46.873Z,18.95
2023-03-07T04:25:55.330Z,20.35
2023-03-07T04:29:03.129Z,16.73
2023-03-07T04:32:12.957Z,15.48
2023-03-07T04:35:15.382Z,15.68
2023-03-07T04:38:22.602Z,14.93
2023-03-07T04:41:33.927Z,15.32
2023-03-07T04:44:51.173Z,18.12
2023-03-07T04:47:56.967Z,15.93
2023-03-07T04:51:08.479Z,16.02
2023-03-07T04:54:14.865Z,15.03
2023-03-07T04:57:22.632Z,13.32
2023-03-07T05:00:29.157Z,13.90
2023-03-07T05:03:35.505Z,13.83
2023-03-07T05:06:42.524Z,14.87
2023-03-07T05:09:48.370Z,13.78
2023-03-07T05:12:56.051Z,15.48
2023-03-07T05:16:07.409Z,14.23
2023-03-07T05:19:14.059Z,14.85
2023-03-07T05:22:21.584Z,14.20
2023-03-07T05:25:28.659Z,14.85
2023-03-07T05:28:37.237Z,13.55
2023-03-07T05:31:43.388Z,14.45
2023-03-07T05:34:52.551Z,15.10
2023-03-07T05:37:58.616Z,13.93
2023-03-07T05:41:04.267Z,13.22
2023-03-07T05:44:10.494Z,12.40
2023-03-07T05:47:15.886Z,14.07
2023-03-07T05:50:22.795Z,13.55
2023-03-07T05:53:29.065Z,12.98
2023-03-07T05:56:34.988Z,12.70
2023-03-07T05:59:40.116Z,12.30
2023-03-07T06:02:45.600Z,12.18
2023-03-07T06:05:51.638Z,12.40
2023-03-07T06:08:51.149Z,12.10
2023-03-07T06:15:01.626Z,12.07
2023-03-07T06:18:09.302Z,11.28
2023-03-07T06:21:18.416Z,11.83
2023-03-07T06:24:24.432Z,12.23
2023-03-07T06:27:30.572Z,12.58
2023-03-07T06:30:37.684Z,14.85
2023-03-07T06:33:44.349Z,17.60
2023-03-07T06:36:51.532Z,14.00
2023-03-07T06:39:58.029Z,10.70
2023-03-07T06:43:03.986Z,11.78
2023-03-07T06:46:09.714Z,11.40
2023-03-07T06:49:15.190Z,11.83
2023-03-07T06:52:21.858Z,11.38
2023-03-07T06:55:29.493Z,13.65
2023-03-07T06:58:35.795Z,11.95
2023-03-07T07:01:42.878Z,11.22
2023-03-07T07:04:50.153Z,10.82
2023-03-07T07:07:56.132Z,11.83
2023-03-07T07:11:02.148Z,9.50
2023-03-07T07:14:09.695Z,12.98
2023-03-07T07:17:17.074Z,10.28
2023-03-07T07:20:25.079Z,10.58
2023-03-07T07:23:26.335Z,10.70
2023-03-07T07:26:19.633Z,10.88
2023-03-07T07:29:24.698Z,11.12
2023-03-07T07:33:18.412Z,11.83
2023-03-07T07:36:25.764Z,11.93
2023-03-07T07:39:33.250Z,11.63
2023-03-07T07:42:38.275Z,12.23
2023-03-07T07:45:49.062Z,13.00
2023-03-07T07:48:55.834Z,12.07
2023-03-07T07:52:01.514Z,14.98
2023-03-07T07:55:08.749Z,12.85
2023-03-07T07:58:13.844Z,13.98
2023-03-07T08:01:34.207Z,12.30
2023-03-07T08:07:45.820Z,12.65
2023-03-07T08:10:51.898Z,13.22
2023-03-07T08:13:58.339Z,12.95
2023-03-07T08:17:04.599Z,11.78
2023-03-07T08:20:13.134Z,13.53
2023-03-07T08:23:18.357Z,12.25
2023-03-07T08:26:25.791Z,12.05
2023-03-07T08:29:32.320Z,14.58
2023-03-07T08:32:37.194Z,13.75
2023-03-07T08:35:42.313Z,13.28
2023-03-07T08:38:47.568Z,12.75
2023-03-07T08:41:52.965Z,14.03
2023-03-07T08:44:58.440Z,12.58
2023-03-07T08:48:10.415Z,13.40
2023-03-07T08:51:23.158Z,13.72
2023-03-07T08:54:29.161Z,12.45
2023-03-07T08:57:35.447Z,12.55
2023-03-07T09:00:40.710Z,12.25
2023-03-07T09:03:46.965Z,13.10
2023-03-07T09:06:52.985Z,13.03
2023-03-07T09:09:58.833Z,11.45
2023-03-07T09:13:05.575Z,13.62
2023-03-07T09:16:11.178Z,13.10
2023-03-07T09:19:16.763Z,12.85
2023-03-07T09:22:23.479Z,13.53
2023-03-07T09:25:29.671Z,13.85
2023-03-07T09:28:35.873Z,13.18
2023-03-07T09:31:42.085Z,12.35
2023-03-07T09:34:48.981Z,11.83
2023-03-07T09:37:54.515Z,12.93
2023-03-07T09:41:02.453Z,12.20
2023-03-07T09:44:33.036Z,11.97
2023-03-07T09:48:07.017Z,12.23
2023-03-07T09:51:28.961Z,11.73
2023-03-07T09:54:41.485Z,11.38
2023-03-07T09:57:54.720Z,12.05
2023-03-07T10:01:00.670Z,13.50
2023-03-07T10:04:21.134Z,12.55
2023-03-07T10:07:19.127Z,13.65
2023-03-07T10:10:21.119Z,12.85
2023-03-07T10:13:51.717Z,13.18
2023-03-07T10:17:43.162Z,14.25
2023-03-07T10:20:58.554Z,13.22
2023-03-07T10:24:26.784Z,13.13
2023-03-07T10:27:32.090Z,15.32
2023-03-07T10:30:37.846Z,15.15
2023-03-07T10:33:43.978Z,14.55
2023-03-07T10:37:08.156Z,13.62
2023-03-07T10:40:11.486Z,13.62
2023-03-07T10:43:17.181Z,14.28
2023-03-07T10:46:41.551Z,14.05
2023-03-07T10:50:05.536Z,16.05
2023-03-07T10:53:10.832Z,14.13
2023-03-07T10:56:33.510Z,14.73
2023-03-07T10:59:40.340Z,14.83
2023-03-07T11:02:57.182Z,15.88
2023-03-07T11:06:04.007Z,15.15
2023-03-07T11:09:09.103Z,15.65
2023-03-07T11:12:27.242Z,13.75
2023-03-07T11:15:35.902Z,13.88
2023-03-07T11:18:55.800Z,13.35
2023-03-07T11:25:20.432Z,12.80
2023-03-07T11:28:49.620Z,11.73
2023-03-07T11:32:06.618Z,13.30
2023-03-07T11:35:22.509Z,11.05
2023-03-07T11:38:52.167Z,12.47
2023-03-07T11:42:02.448Z,11.80
2023-03-07T11:45:16.968Z,12.58
2023-03-07T11:48:58.763Z,11.57
2023-03-07T11:52:43.619Z,13.05
2023-03-07T11:56:12.564Z,11.60
2023-03-07T11:59:46.617Z,12.20
2023-03-07T12:03:00.837Z,12.35
2023-03-07T12:06:34.541Z,11.20
2023-03-07T12:10:04.534Z,11.55
2023-03-07T12:13:31.980Z,11.83
2023-03-07T12:16:59.374Z,11.95
2023-03-07T12:20:32.853Z,10.70
2023-03-07T12:23:48.985Z,10.40
2023-03-07T12:27:18.443Z,10.78
2023-03-07T12:31:01.433Z,12.07
2023-03-07T12:34:12.248Z,10.03
2023-03-07T12:37:32.131Z,10.38
2023-03-07T12:40:59.603Z,13.05
2023-03-07T12:44:09.403Z,10.80
2023-03-07T12:47:43.806Z,11.63
2023-03-07T12:51:26.735Z,11.28
2023-03-07T12:54:48.038Z,10.72
2023-03-07T12:57:58.048Z,10.95
2023-03-07T13:01:12.950Z,10.75
2023-03-07T13:04:34.068Z,12.03
2023-03-07T13:07:46.859Z,10.88
2023-03-07T13:10:52.347Z,10.35
2023-03-07T13:14:05.237Z,10.25
2023-03-07T13:17:10.063Z,10.78
2023-03-07T13:20:17.507Z,10.90
2023-03-07T13:23:30.559Z,11.30
2023-03-07T13:26:38.193Z,10.93
2023-03-07T13:30:19.945Z,10.13
2023-03-07T13:33:36.567Z,9.38
2023-03-07T13:36:52.726Z,9.48
2023-03-07T13:39:57.782Z,9.53
2023-03-07T13:43:03.264Z,10.15
2023-03-07T13:46:52.480Z,10.08
2023-03-07T13:49:59.292Z,10.10
2023-03-07T13:53:04.771Z,9.40
2023-03-07T13:56:55.501Z,10.15
2023-03-07T14:00:42.213Z,10.13
2023-03-07T14:03:54.798Z,9.43
2023-03-07T14:07:21.001Z,8.85
2023-03-07T14:10:39.271Z,9.20
2023-03-07T14:14:14.568Z,11.28
2023-03-07T14:17:27.044Z,8.78
2023-03-07T14:21:00.034Z,7.75
2023-03-07T14:24:07.201Z,8.93
2023-03-07T14:27:16.133Z,8.23
2023-03-07T14:30:29.546Z,8.90
2023-03-07T14:33:36.271Z,10.55
2023-03-07T14:36:46.124Z,8.50
2023-03-07T14:40:30.105Z,9.48
2023-03-07T14:44:11.807Z,9.20
2023-03-07T14:47:39.144Z,8.55
2023-03-07T14:50:47.571Z,8.88
2023-03-07T14:53:53.176Z,10.95
2023-03-07T14:56:59.735Z,11.75
2023-03-07T15:00:37.060Z,10.25
2023-03-07T15:03:43.485Z,8.98
2023-03-07T15:06:57.225Z,13.50
2023-03-07T15:10:03.489Z,14.10
2023-03-07T15:13:13.483Z,11.40
2023-03-07T15:16:27.476Z,10.45
2023-03-07T15:19:36.897Z,11.97
2023-03-07T15:22:47.827Z,20.92
2023-03-07T15:25:54.494Z,15.15
2023-03-07T15:29:00.585Z,14.53
2023-03-07T15:32:14.741Z,13.78
2023-03-07T15:35:30.621Z,15.70
2023-03-07T15:38:39.127Z,13.50
2023-03-07T15:41:48.440Z,10.45
2023-03-07T15:44:54.716Z,9.68
2023-03-07T15:48:01.199Z,11.68
2023-03-07T15:51:09.429Z,15.18
2023-03-07T15:54:39.120Z,15.18
2023-03-07T15:57:52.679Z,12.95
2023-03-07T16:00:58.685Z,12.18
2023-03-07T16:04:11.297Z,14.20
2023-03-07T16:07:17.923Z,15.45
2023-03-07T16:10:24.306Z,15.88
2023-03-07T16:13:31.911Z,15.43
2023-03-07T16:16:39.581Z,14.85
2023-03-07T16:22:59.272Z,15.68
2023-03-07T16:26:04.546Z,15.78
2023-03-07T16:29:10.758Z,15.50
2023-03-07T16:32:17.252Z,16.67
2023-03-07T16:35:34.351Z,16.45
2023-03-07T16:38:40.212Z,17.70
2023-03-07T16:41:47.205Z,18.02
2023-03-07T16:44:53.853Z,23.02
2023-03-07T16:48:01.557Z,29.15
2023-03-07T16:51:07.328Z,21.87
2023-03-07T16:54:14.554Z,17.60
2023-03-07T16:57:24.125Z,17.67
2023-03-07T17:00:33.800Z,17.00
2023-03-07T17:03:40.297Z,16.50
2023-03-07T17:06:48.757Z,18.17
2023-03-07T17:09:53.612Z,18.42
2023-03-07T17:13:00.472Z,20.15
2023-03-07T17:16:07.009Z,18.32
2023-03-07T17:19:12.300Z,18.00
2023-03-07T17:22:20.239Z,24.57
2023-03-07T17:25:25.590Z,27.40
2023-03-07T17:28:32.935Z,28.42
2023-03-07T17:31:39.520Z,27.25
2023-03-07T17:34:46.660Z,23.18
2023-03-07T17:37:53.959Z,21.55
2023-03-07T17:40:59.388Z,25.12
2023-03-07T17:44:04.988Z,23.15
2023-03-07T17:47:11.545Z,19.52
2023-03-07T17:50:17.209Z,18.60
2023-03-07T17:53:24.023Z,17.52
2023-03-07T17:56:30.342Z,18.32
2023-03-07T17:59:36.036Z,19.67
2023-03-07T18:02:42.334Z,24.77
2023-03-07T18:05:48.721Z,44.10
2023-03-07T18:08:53.851Z,25.32
2023-03-07T18:12:00.648Z,20.02
2023-03-07T18:15:07.336Z,20.68
2023-03-07T18:18:14.087Z,20.57
2023-03-07T18:21:22.925Z,21.45
2023-03-07T18:24:42.596Z,26.45
2023-03-07T18:27:48.199Z,38.95
2023-03-07T18:30:55.216Z,29.70
2023-03-07T18:34:08.192Z,27.22
2023-03-07T18:37:15.612Z,27.62
2023-03-07T18:40:22.569Z,33.75
2023-03-07T18:43:28.335Z,24.75
2023-03-07T18:46:39.547Z,26.00
2023-03-07T18:49:46.046Z,21.90
2023-03-07T18:52:53.004Z,27.13
2023-03-07T18:56:00.117Z,25.12
2023-03-07T18:59:08.387Z,31.50
2023-03-07T19:02:13.131Z,31.57
2023-03-07T19:05:19.257Z,31.00
2023-03-07T19:08:25.086Z,59.00
2023-03-07T19:11:33.634Z,64.32
2023-03-07T19:14:40.615Z,28.77
2023-03-07T19:17:45.569Z,20.30
2023-03-07T19:20:56.200Z,22.95
2023-03-07T19:24:02.669Z,31.80
2023-03-07T19:27:07.481Z,31.52
2023-03-07T19:30:13.304Z,52.48
2023-03-07T19:33:19.107Z,59.63
2023-03-07T19:36:30.012Z,46.28
2023-03-07T19:39:36.174Z,41.92
2023-03-07T19:42:41.891Z,31.35
2023-03-07T19:45:48.247Z,25.32
2023-03-07T19:48:54.897Z,25.02
2023-03-07T19:52:01.614Z,24.00
2023-03-07T19:55:07.586Z,22.42
2023-03-07T19:58:13.764Z,27.17
2023-03-07T20:01:27.742Z,39.42
2023-03-07T20:04:34.324Z,79.97
2023-03-07T20:07:39.941Z,38.25
2023-03-07T20:10:45.484Z,33.28
2023-03-07T20:13:53.194Z,32.85
2023-03-07T20:16:58.690Z,30.12
2023-03-07T20:20:06.380Z,29.77
2023-03-07T20:23:04.593Z,28.62
2023-03-07T20:26:23.791Z,22.62
2023-03-07T20:29:31.625Z,21.50
2023-03-07T20:32:38.181Z,22.07
2023-03-07T20:35:45.123Z,24.05
2023-03-07T20:38:45.094Z,25.27
2023-03-07T20:41:51.641Z,25.92
2023-03-07T20:44:57.684Z,20.35
2023-03-07T20:48:03.642Z,22.05
2023-03-07T20:51:08.652Z,23.57
2023-03-07T20:54:20.119Z,23.07
2023-03-07T20:57:26.123Z,24.45
2023-03-07T21:00:32.336Z,24.70
2023-03-07T21:03:38.282Z,27.77
2023-03-07T21:06:46.533Z,29.87
2023-03-07T21:09:46.032Z,26.42
2023-03-07T21:12:39.755Z,26.65
2023-03-07T21:15:47.952Z,27.05
2023-03-07T21:18:54.643Z,26.50
2023-03-07T21:22:00.486Z,26.27
2023-03-07T21:25:06.523Z,27.65
2023-03-07T21:28:13.183Z,26.70
2023-03-07T21:31:31.075Z,27.73
2023-03-07T21:34:37.819Z,26.17
2023-03-07T21:37:44.672Z,28.87
2023-03-07T21:40:50.602Z,29.18
2023-03-07T21:43:57.166Z,28.30
2023-03-07T21:47:03.505Z,31.80
2023-03-07T21:50:11.090Z,33.28
2023-03-07T21:53:16.805Z,31.20
2023-03-07T21:56:25.340Z,32.75
2023-03-07T21:59:31.310Z,31.20
2023-03-07T22:02:37.054Z,22.55
2023-03-07T22:05:36.440Z,23.42
2023-03-07T22:08:22.363Z,23.12
2023-03-07T22:11:16.671Z,23.62
2023-03-07T22:14:04.500Z,23.18
2023-03-07T22:16:57.298Z,23.57
2023-03-07T22:19:44.570Z,25.90
2023-03-07T22:22:37.029Z,27.30
2023-03-07T22:25:30.553Z,42.50
2023-03-07T22:28:36.680Z,56.50
2023-03-07T22:31:41.901Z,48.90
2023-03-07T22:34:47.343Z,34.50
2023-03-07T22:37:52.663Z,35.60
2023-03-07T22:40:58.296Z,31.15
2023-03-07T22:44:03.122Z,26.95
2023-03-07T22:47:08.418Z,24.85
2023-03-07T22:50:13.516Z,25.50
2023-03-07T22:53:18.362Z,24.32
2023-03-07T22:56:34.701Z,28.17
2023-03-07T22:59:39.461Z,26.93
2023-03-07T23:02:46.057Z,27.87
2023-03-07T23:05:52.046Z,27.37
2023-03-07T23:09:02.969Z,30.08
2023-03-07T23:12:09.141Z,23.45
2023-03-07T23:15:15.323Z,25.43
2023-03-07T23:18:20.965Z,31.62
2023-03-07T23:21:27.380Z,38.60
2023-03-07T23:24:32.961Z,33.88
2023-03-07T23:27:39.580Z,34.88
2023-03-07T23:30:45.758Z,32.13
2023-03-07T23:33:51.660Z,34.53
2023-03-07T23:36:58.354Z,37.03
2023-03-07T23:40:05.795Z,36.30
2023-03-07T23:43:12.254Z,31.73
2023-03-07T23:46:18.873Z,27.98
2023-03-07T23:49:26.361Z,24.87
2023-03-07T23:52:31.472Z,25.25
2023-03-07T23:55:37.377Z,22.37
2023-03-07T23:58:43.211Z,22.80
